sensor_id;sensor_type;location;lat;lon;timestamp;P1;durP1;ratioP1;P2;durP2;ratioP2
9461;SDS011;4769;42.660;23.262;2023-02-11T00:00:44;31.03;;;16.30;;
9461;SDS011;4769;42.660;23.262;2023-02-11T00:03:11;55.40;;;25.43;;
9461;SDS011;4769;42.660;23.262;2023-02-11T00:05:38;29.37;;;17.30;;
9461;SDS011;4769;42.660;23.262;2023-02-11T00:08:04;20.27;;;13.50;;
9461;SDS011;4769;42.660;23.262;2023-02-11T00:10:32;22.70;;;11.80;;
9461;SDS011;4769;42.660;23.262;2023-02-11T00:12:59;24.93;;;13.93;;
9461;SDS011;4769;42.660;23.262;2023-02-11T00:15:26;19.40;;;12.47;;
9461;SDS011;4769;42.660;23.262;2023-02-11T00:17:53;17.93;;;11.50;;
9461;SDS011;4769;42.660;23.262;2023-02-11T00:20:19;18.63;;;11.07;;
9461;SDS011;4769;42.660;23.262;2023-02-11T00:22:46;25.20;;;13.13;;
9461;SDS011;4769;42.660;23.262;2023-02-11T00:25:13;19.03;;;11.77;;
9461;SDS011;4769;42.660;23.262;2023-02-11T00:27:41;20.73;;;13.13;;
9461;SDS011;4769;42.660;23.262;2023-02-11T00:30:08;24.70;;;13.67;;
9461;SDS011;4769;42.660;23.262;2023-02-11T00:32:36;18.53;;;10.67;;
9461;SDS011;4769;42.660;23.262;2023-02-11T00:35:03;21.03;;;12.07;;
9461;SDS011;4769;42.660;23.262;2023-02-11T00:37:29;20.97;;;11.93;;
9461;SDS011;4769;42.660;23.262;2023-02-11T00:40:00;18.93;;;11.10;;
9461;SDS011;4769;42.660;23.262;2023-02-11T00:42:27;14.73;;;10.47;;
9461;SDS011;4769;42.660;23.262;2023-02-11T00:44:55;21.30;;;11.97;;
9461;SDS011;4769;42.660;23.262;2023-02-11T00:47:22;18.93;;;10.70;;
9461;SDS011;4769;42.660;23.262;2023-02-11T00:49:48;17.57;;;10.70;;
9461;SDS011;4769;42.660;23.262;2023-02-11T00:52:16;16.53;;;11.23;;
9461;SDS011;4769;42.660;23.262;2023-02-11T00:54:43;16.37;;;9.70;;
9461;SDS011;4769;42.660;23.262;2023-02-11T00:57:10;18.57;;;11.27;;
9461;SDS011;4769;42.660;23.262;2023-02-11T00:59:36;16.63;;;10.33;;
9461;SDS011;4769;42.660;23.262;2023-02-11T01:02:04;16.43;;;10.10;;
9461;SDS011;4769;42.660;23.262;2023-02-11T01:04:31;17.13;;;10.87;;
9461;SDS011;4769;42.660;23.262;2023-02-11T01:06:58;17.53;;;11.13;;
9461;SDS011;4769;42.660;23.262;2023-02-11T01:09:25;18.70;;;10.50;;
9461;SDS011;4769;42.660;23.262;2023-02-11T01:11:51;19.40;;;11.83;;
9461;SDS011;4769;42.660;23.262;2023-02-11T01:14:18;24.30;;;12.83;;
9461;SDS011;4769;42.660;23.262;2023-02-11T01:16:45;22.83;;;12.33;;
9461;SDS011;4769;42.660;23.262;2023-02-11T01:19:13;18.43;;;11.63;;
9461;SDS011;4769;42.660;23.262;2023-02-11T01:21:40;20.50;;;12.50;;
9461;SDS011;4769;42.660;23.262;2023-02-11T01:24:07;19.10;;;11.53;;
9461;SDS011;4769;42.660;23.262;2023-02-11T01:26:33;19.93;;;11.67;;
9461;SDS011;4769;42.660;23.262;2023-02-11T01:29:00;18.70;;;11.10;;
9461;SDS011;4769;42.660;23.262;2023-02-11T01:31:28;23.00;;;13.40;;
9461;SDS011;4769;42.660;23.262;2023-02-11T01:33:55;17.47;;;10.77;;
9461;SDS011;4769;42.660;23.262;2023-02-11T01:36:23;16.57;;;11.17;;
9461;SDS011;4769;42.660;23.262;2023-02-11T01:38:50;21.50;;;13.03;;
9461;SDS011;4769;42.660;23.262;2023-02-11T01:41:17;20.97;;;12.00;;
9461;SDS011;4769;42.660;23.262;2023-02-11T01:43:45;17.50;;;10.97;;
9461;SDS011;4769;42.660;23.262;2023-02-11T01:46:28;27.57;;;12.27;;
9461;SDS011;4769;42.660;23.262;2023-02-11T01:48:58;17.70;;;11.17;;
9461;SDS011;4769;42.660;23.262;2023-02-11T01:51:31;19.03;;;11.70;;
9461;SDS011;4769;42.660;23.262;2023-02-11T01:54:05;18.00;;;10.83;;
9461;SDS011;4769;42.660;23.262;2023-02-11T01:56:52;16.53;;;10.73;;
9461;SDS011;4769;42.660;23.262;2023-02-11T01:59:40;19.17;;;11.27;;
9461;SDS011;4769;42.660;23.262;2023-02-11T02:02:12;16.40;;;10.17;;
9461;SDS011;4769;42.660;23.262;2023-02-11T02:04:44;14.87;;;9.60;;
9461;SDS011;4769;42.660;23.262;2023-02-11T02:07:23;16.20;;;10.13;;
9461;SDS011;4769;42.660;23.262;2023-02-11T02:09:54;15.07;;;9.90;;
9461;SDS011;4769;42.660;23.262;2023-02-11T02:12:25;17.07;;;10.30;;
9461;SDS011;4769;42.660;23.262;2023-02-11T02:15:07;19.67;;;10.80;;
9461;SDS011;4769;42.660;23.262;2023-02-11T02:18:01;18.43;;;10.80;;
9461;SDS011;4769;42.660;23.262;2023-02-11T02:23:50;14.80;;;9.47;;
9461;SDS011;4769;42.660;23.262;2023-02-11T02:26:45;15.43;;;9.60;;
9461;SDS011;4769;42.660;23.262;2023-02-11T02:29:52;17.30;;;9.87;;
9461;SDS011;4769;42.660;23.262;2023-02-11T02:35:41;16.23;;;9.50;;
9461;SDS011;4769;42.660;23.262;2023-02-11T02:38:15;16.97;;;9.87;;
9461;SDS011;4769;42.660;23.262;2023-02-11T02:40:49;16.27;;;9.17;;
9461;SDS011;4769;42.660;23.262;2023-02-11T02:43:20;18.50;;;9.33;;
9461;SDS011;4769;42.660;23.262;2023-02-11T02:45:51;14.30;;;9.13;;
9461;SDS011;4769;42.660;23.262;2023-02-11T02:48:26;15.73;;;9.57;;
9461;SDS011;4769;42.660;23.262;2023-02-11T02:50:58;19.73;;;10.57;;
9461;SDS011;4769;42.660;23.262;2023-02-11T02:53:37;16.20;;;8.93;;
9461;SDS011;4769;42.660;23.262;2023-02-11T02:56:19;18.43;;;11.00;;
9461;SDS011;4769;42.660;23.262;2023-02-11T02:59:03;15.47;;;9.40;;
9461;SDS011;4769;42.660;23.262;2023-02-11T03:01:44;16.50;;;9.93;;
9461;SDS011;4769;42.660;23.262;2023-02-11T03:04:21;15.90;;;9.13;;
9461;SDS011;4769;42.660;23.262;2023-02-11T03:06:55;16.63;;;9.70;;
9461;SDS011;4769;42.660;23.262;2023-02-11T03:09:28;17.00;;;10.10;;
9461;SDS011;4769;42.660;23.262;2023-02-11T03:12:01;18.27;;;10.30;;
9461;SDS011;4769;42.660;23.262;2023-02-11T03:14:31;15.50;;;9.40;;
9461;SDS011;4769;42.660;23.262;2023-02-11T03:17:01;17.03;;;10.20;;
9461;SDS011;4769;42.660;23.262;2023-02-11T03:19:33;16.97;;;10.10;;
9461;SDS011;4769;42.660;23.262;2023-02-11T03:22:02;17.67;;;9.43;;
9461;SDS011;4769;42.660;23.262;2023-02-11T03:24:34;16.23;;;10.50;;
9461;SDS011;4769;42.660;23.262;2023-02-11T03:27:05;14.60;;;9.60;;
9461;SDS011;4769;42.660;23.262;2023-02-11T03:29:38;17.30;;;10.10;;
9461;SDS011;4769;42.660;23.262;2023-02-11T03:32:11;15.57;;;9.97;;
9461;SDS011;4769;42.660;23.262;2023-02-11T03:34:44;17.90;;;10.07;;
9461;SDS011;4769;42.660;23.262;2023-02-11T03:37:17;17.17;;;10.53;;
9461;SDS011;4769;42.660;23.262;2023-02-11T03:39:49;18.73;;;10.00;;
9461;SDS011;4769;42.660;23.262;2023-02-11T03:42:18;15.73;;;10.20;;
9461;SDS011;4769;42.660;23.262;2023-02-11T03:44:48;15.43;;;8.73;;
9461;SDS011;4769;42.660;23.262;2023-02-11T03:47:20;16.80;;;10.80;;
9461;SDS011;4769;42.660;23.262;2023-02-11T03:49:53;19.13;;;10.53;;
9461;SDS011;4769;42.660;23.262;2023-02-11T03:52:22;15.40;;;8.90;;
9461;SDS011;4769;42.660;23.262;2023-02-11T03:54:52;17.40;;;9.87;;
9461;SDS011;4769;42.660;23.262;2023-02-11T03:57:22;19.70;;;11.97;;
9461;SDS011;4769;42.660;23.262;2023-02-11T03:59:52;17.17;;;11.07;;
9461;SDS011;4769;42.660;23.262;2023-02-11T04:02:21;15.77;;;10.33;;
9461;SDS011;4769;42.660;23.262;2023-02-11T04:04:50;18.20;;;9.63;;
9461;SDS011;4769;42.660;23.262;2023-02-11T04:07:19;17.40;;;9.83;;
9461;SDS011;4769;42.660;23.262;2023-02-11T04:09:46;19.50;;;10.50;;
9461;SDS011;4769;42.660;23.262;2023-02-11T04:12:12;15.73;;;9.63;;
9461;SDS011;4769;42.660;23.262;2023-02-11T04:14:39;17.70;;;10.67;;
9461;SDS011;4769;42.660;23.262;2023-02-11T04:17:06;19.50;;;10.13;;
9461;SDS011;4769;42.660;23.262;2023-02-11T04:19:33;18.13;;;10.77;;
9461;SDS011;4769;42.660;23.262;2023-02-11T04:22:00;16.93;;;10.33;;
9461;SDS011;4769;42.660;23.262;2023-02-11T04:24:28;14.83;;;9.67;;
9461;SDS011;4769;42.660;23.262;2023-02-11T04:26:55;16.93;;;9.77;;
9461;SDS011;4769;42.660;23.262;2023-02-11T04:29:22;17.43;;;9.93;;
9461;SDS011;4769;42.660;23.262;2023-02-11T04:31:49;14.53;;;9.67;;
9461;SDS011;4769;42.660;23.262;2023-02-11T04:34:15;17.17;;;10.27;;
9461;SDS011;4769;42.660;23.262;2023-02-11T04:36:42;15.27;;;10.23;;
9461;SDS011;4769;42.660;23.262;2023-02-11T04:39:09;19.73;;;10.80;;
9461;SDS011;4769;42.660;23.262;2023-02-11T04:41:37;15.37;;;9.97;;
9461;SDS011;4769;42.660;23.262;2023-02-11T04:44:04;17.80;;;10.83;;
9461;SDS011;4769;42.660;23.262;2023-02-11T04:46:31;16.70;;;9.87;;
9461;SDS011;4769;42.660;23.262;2023-02-11T04:48:57;17.03;;;10.03;;
9461;SDS011;4769;42.660;23.262;2023-02-11T04:51:24;16.73;;;11.23;;
9461;SDS011;4769;42.660;23.262;2023-02-11T04:53:51;17.67;;;10.60;;
9461;SDS011;4769;42.660;23.262;2023-02-11T04:56:17;18.47;;;12.40;;
9461;SDS011;4769;42.660;23.262;2023-02-11T04:58:46;20.80;;;10.83;;
9461;SDS011;4769;42.660;23.262;2023-02-11T05:01:13;17.80;;;10.77;;
9461;SDS011;4769;42.660;23.262;2023-02-11T05:03:41;18.60;;;10.47;;
9461;SDS011;4769;42.660;23.262;2023-02-11T05:06:08;17.67;;;10.60;;
9461;SDS011;4769;42.660;23.262;2023-02-11T05:08:35;19.57;;;11.70;;
9461;SDS011;4769;42.660;23.262;2023-02-11T05:11:02;21.53;;;11.57;;
9461;SDS011;4769;42.660;23.262;2023-02-11T05:13:29;19.93;;;11.80;;
9461;SDS011;4769;42.660;23.262;2023-02-11T05:15:58;18.57;;;10.63;;
9461;SDS011;4769;42.660;23.262;2023-02-11T05:18:25;23.67;;;12.23;;
9461;SDS011;4769;42.660;23.262;2023-02-11T05:20:51;19.03;;;11.50;;
9461;SDS011;4769;42.660;23.262;2023-02-11T05:23:18;24.80;;;13.87;;
9461;SDS011;4769;42.660;23.262;2023-02-11T05:25:45;17.00;;;10.90;;
9461;SDS011;4769;42.660;23.262;2023-02-11T05:28:12;21.00;;;11.90;;
9461;SDS011;4769;42.660;23.262;2023-02-11T05:30:38;20.30;;;12.03;;
9461;SDS011;4769;42.660;23.262;2023-02-11T05:33:07;24.77;;;13.67;;
9461;SDS011;4769;42.660;23.262;2023-02-11T05:35:33;17.90;;;10.93;;
9461;SDS011;4769;42.660;23.262;2023-02-11T05:38:00;22.70;;;13.07;;
9461;SDS011;4769;42.660;23.262;2023-02-11T05:40:27;20.33;;;11.43;;
9461;SDS011;4769;42.660;23.262;2023-02-11T05:42:54;20.13;;;11.83;;
9461;SDS011;4769;42.660;23.262;2023-02-11T05:45:20;20.50;;;12.07;;
9461;SDS011;4769;42.660;23.262;2023-02-11T05:47:47;21.07;;;12.20;;
9461;SDS011;4769;42.660;23.262;2023-02-11T05:50:15;19.67;;;12.23;;
9461;SDS011;4769;42.660;23.262;2023-02-11T05:52:42;22.53;;;13.07;;
9461;SDS011;4769;42.660;23.262;2023-02-11T05:55:09;20.87;;;13.40;;
9461;SDS011;4769;42.660;23.262;2023-02-11T05:57:36;23.57;;;13.13;;
9461;SDS011;4769;42.660;23.262;2023-02-11T06:00:03;22.67;;;13.33;;
9461;SDS011;4769;42.660;23.262;2023-02-11T06:02:31;19.90;;;12.67;;
9461;SDS011;4769;42.660;23.262;2023-02-11T06:04:58;23.47;;;13.93;;
9461;SDS011;4769;42.660;23.262;2023-02-11T06:07:26;26.57;;;14.23;;
9461;SDS011;4769;42.660;23.262;2023-02-11T06:09:53;24.93;;;14.40;;
9461;SDS011;4769;42.660;23.262;2023-02-11T06:12:20;22.67;;;13.90;;
9461;SDS011;4769;42.660;23.262;2023-02-11T06:14:46;28.77;;;13.77;;
9461;SDS011;4769;42.660;23.262;2023-02-11T06:17:14;26.73;;;14.17;;
9461;SDS011;4769;42.660;23.262;2023-02-11T06:19:41;28.27;;;15.40;;
9461;SDS011;4769;42.660;23.262;2023-02-11T06:22:07;27.43;;;15.50;;
9461;SDS011;4769;42.660;23.262;2023-02-11T06:24:35;26.70;;;14.93;;
9461;SDS011;4769;42.660;23.262;2023-02-11T06:27:03;39.73;;;21.13;;
9461;SDS011;4769;42.660;23.262;2023-02-11T06:29:30;35.07;;;18.37;;
9461;SDS011;4769;42.660;23.262;2023-02-11T06:31:57;45.07;;;21.50;;
9461;SDS011;4769;42.660;23.262;2023-02-11T06:34:23;28.07;;;15.93;;
9461;SDS011;4769;42.660;23.262;2023-02-11T06:36:50;27.80;;;16.30;;
9461;SDS011;4769;42.660;23.262;2023-02-11T06:39:17;41.53;;;20.40;;
9461;SDS011;4769;42.660;23.262;2023-02-11T06:41:45;39.00;;;20.87;;
9461;SDS011;4769;42.660;23.262;2023-02-11T06:44:12;32.17;;;18.27;;
9461;SDS011;4769;42.660;23.262;2023-02-11T06:46:38;32.13;;;18.27;;
9461;SDS011;4769;42.660;23.262;2023-02-11T06:49:05;28.30;;;16.43;;
9461;SDS011;4769;42.660;23.262;2023-02-11T06:51:37;28.17;;;16.40;;
9461;SDS011;4769;42.660;23.262;2023-02-11T06:54:05;29.10;;;16.63;;
9461;SDS011;4769;42.660;23.262;2023-02-11T06:56:32;31.00;;;16.93;;
9461;SDS011;4769;42.660;23.262;2023-02-11T06:59:02;26.37;;;16.10;;
9461;SDS011;4769;42.660;23.262;2023-02-11T07:01:29;27.30;;;16.63;;
9461;SDS011;4769;42.660;23.262;2023-02-11T07:03:55;31.17;;;17.40;;
9461;SDS011;4769;42.660;23.262;2023-02-11T07:06:23;29.70;;;16.80;;
9461;SDS011;4769;42.660;23.262;2023-02-11T07:08:52;30.40;;;17.13;;
9461;SDS011;4769;42.660;23.262;2023-02-11T07:11:20;24.93;;;16.23;;
9461;SDS011;4769;42.660;23.262;2023-02-11T07:13:49;24.57;;;15.70;;
9461;SDS011;4769;42.660;23.262;2023-02-11T07:16:18;27.50;;;16.73;;
9461;SDS011;4769;42.660;23.262;2023-02-11T07:18:45;25.50;;;15.10;;
9461;SDS011;4769;42.660;23.262;2023-02-11T07:21:14;27.53;;;17.13;;
9461;SDS011;4769;42.660;23.262;2023-02-11T07:23:46;22.70;;;13.90;;
9461;SDS011;4769;42.660;23.262;2023-02-11T07:26:14;20.20;;;12.60;;
9461;SDS011;4769;42.660;23.262;2023-02-11T07:28:42;24.73;;;14.83;;
9461;SDS011;4769;42.660;23.262;2023-02-11T07:31:09;51.40;;;26.53;;
9461;SDS011;4769;42.660;23.262;2023-02-11T07:33:42;30.20;;;16.57;;
9461;SDS011;4769;42.660;23.262;2023-02-11T07:36:10;24.60;;;15.30;;
9461;SDS011;4769;42.660;23.262;2023-02-11T07:38:42;30.27;;;18.53;;
9461;SDS011;4769;42.660;23.262;2023-02-11T07:41:10;23.90;;;14.77;;
9461;SDS011;4769;42.660;23.262;2023-02-11T07:43:39;25.87;;;15.27;;
9461;SDS011;4769;42.660;23.262;2023-02-11T07:46:07;20.17;;;14.33;;
9461;SDS011;4769;42.660;23.262;2023-02-11T07:48:35;24.33;;;15.43;;
9461;SDS011;4769;42.660;23.262;2023-02-11T07:51:08;24.50;;;15.13;;
9461;SDS011;4769;42.660;23.262;2023-02-11T07:53:36;28.43;;;17.03;;
9461;SDS011;4769;42.660;23.262;2023-02-11T07:56:04;28.80;;;18.47;;
9461;SDS011;4769;42.660;23.262;2023-02-11T07:58:32;20.63;;;14.07;;
9461;SDS011;4769;42.660;23.262;2023-02-11T08:01:00;23.93;;;13.23;;
9461;SDS011;4769;42.660;23.262;2023-02-11T08:03:27;22.27;;;13.67;;
9461;SDS011;4769;42.660;23.262;2023-02-11T08:05:54;23.97;;;14.03;;
9461;SDS011;4769;42.660;23.262;2023-02-11T08:08:24;21.13;;;13.73;;
9461;SDS011;4769;42.660;23.262;2023-02-11T08:10:51;23.40;;;15.40;;
9461;SDS011;4769;42.660;23.262;2023-02-11T08:13:18;20.97;;;12.63;;
9461;SDS011;4769;42.660;23.262;2023-02-11T08:15:45;25.20;;;14.30;;
9461;SDS011;4769;42.660;23.262;2023-02-11T08:18:12;23.03;;;14.73;;
9461;SDS011;4769;42.660;23.262;2023-02-11T08:20:41;23.57;;;13.07;;
9461;SDS011;4769;42.660;23.262;2023-02-11T08:23:09;21.97;;;13.40;;
9461;SDS011;4769;42.660;23.262;2023-02-11T08:25:37;21.60;;;14.10;;
9461;SDS011;4769;42.660;23.262;2023-02-11T08:28:04;22.03;;;14.27;;
9461;SDS011;4769;42.660;23.262;2023-02-11T08:30:33;26.10;;;15.93;;
9461;SDS011;4769;42.660;23.262;2023-02-11T08:33:00;26.33;;;15.17;;
9461;SDS011;4769;42.660;23.262;2023-02-11T08:35:27;26.53;;;15.70;;
9461;SDS011;4769;42.660;23.262;2023-02-11T08:37:54;26.63;;;15.60;;
9461;SDS011;4769;42.660;23.262;2023-02-11T08:40:20;26.80;;;17.37;;
9461;SDS011;4769;42.660;23.262;2023-02-11T08:42:50;25.07;;;15.47;;
9461;SDS011;4769;42.660;23.262;2023-02-11T08:45:17;26.90;;;16.47;;
9461;SDS011;4769;42.660;23.262;2023-02-11T08:47:44;31.70;;;17.97;;
9461;SDS011;4769;42.660;23.262;2023-02-11T08:50:11;28.70;;;17.53;;
9461;SDS011;4769;42.660;23.262;2023-02-11T08:52:37;26.10;;;16.20;;
9461;SDS011;4769;42.660;23.262;2023-02-11T08:55:04;30.40;;;18.27;;
9461;SDS011;4769;42.660;23.262;2023-02-11T08:57:32;32.20;;;17.60;;
9461;SDS011;4769;42.660;23.262;2023-02-11T09:00:00;29.13;;;16.20;;
9461;SDS011;4769;42.660;23.262;2023-02-11T09:02:27;24.73;;;15.90;;
9461;SDS011;4769;42.660;23.262;2023-02-11T09:04:54;22.33;;;14.47;;
9461;SDS011;4769;42.660;23.262;2023-02-11T09:07:20;20.13;;;13.67;;
9461;SDS011;4769;42.660;23.262;2023-02-11T09:09:47;24.70;;;15.17;;
9461;SDS011;4769;42.660;23.262;2023-02-11T09:12:14;20.37;;;13.67;;
9461;SDS011;4769;42.660;23.262;2023-02-11T09:14:40;22.47;;;13.70;;
9461;SDS011;4769;42.660;23.262;2023-02-11T09:17:09;18.40;;;12.87;;
9461;SDS011;4769;42.660;23.262;2023-02-11T09:19:35;22.83;;;14.50;;
9461;SDS011;4769;42.660;23.262;2023-02-11T09:22:02;23.97;;;15.57;;
9461;SDS011;4769;42.660;23.262;2023-02-11T09:24:29;25.70;;;14.73;;
9461;SDS011;4769;42.660;23.262;2023-02-11T09:26:56;23.70;;;13.90;;
9461;SDS011;4769;42.660;23.262;2023-02-11T09:29:22;22.77;;;13.87;;
9461;SDS011;4769;42.660;23.262;2023-02-11T09:31:49;24.63;;;15.27;;
9461;SDS011;4769;42.660;23.262;2023-02-11T09:34:17;25.87;;;15.63;;
9461;SDS011;4769;42.660;23.262;2023-02-11T09:36:44;27.67;;;16.37;;
9461;SDS011;4769;42.660;23.262;2023-02-11T09:39:12;24.07;;;16.10;;
9461;SDS011;4769;42.660;23.262;2023-02-11T09:41:48;23.30;;;14.30;;
9461;SDS011;4769;42.660;23.262;2023-02-11T09:44:30;21.83;;;14.33;;
9461;SDS011;4769;42.660;23.262;2023-02-11T09:46:59;23.13;;;14.07;;
9461;SDS011;4769;42.660;23.262;2023-02-11T09:49:32;27.63;;;16.70;;
9461;SDS011;4769;42.660;23.262;2023-02-11T09:52:11;23.60;;;14.73;;
9461;SDS011;4769;42.660;23.262;2023-02-11T09:54:48;22.20;;;13.83;;
9461;SDS011;4769;42.660;23.262;2023-02-11T09:57:20;22.93;;;14.23;;
9461;SDS011;4769;42.660;23.262;2023-02-11T09:59:47;21.10;;;12.70;;
9461;SDS011;4769;42.660;23.262;2023-02-11T10:02:16;22.53;;;14.13;;
9461;SDS011;4769;42.660;23.262;2023-02-11T10:05:01;25.87;;;13.27;;
9461;SDS011;4769;42.660;23.262;2023-02-11T10:07:41;21.93;;;14.33;;
9461;SDS011;4769;42.660;23.262;2023-02-11T10:10:16;18.70;;;13.23;;
9461;SDS011;4769;42.660;23.262;2023-02-11T10:12:58;19.17;;;12.80;;
9461;SDS011;4769;42.660;23.262;2023-02-11T10:15:46;18.03;;;12.50;;
9461;SDS011;4769;42.660;23.262;2023-02-11T10:18:28;22.47;;;14.17;;
9461;SDS011;4769;42.660;23.262;2023-02-11T10:21:06;19.67;;;13.20;;
9461;SDS011;4769;42.660;23.262;2023-02-11T10:23:44;16.77;;;11.57;;
9461;SDS011;4769;42.660;23.262;2023-02-11T10:26:14;19.10;;;12.53;;
9461;SDS011;4769;42.660;23.262;2023-02-11T10:28:43;18.03;;;11.97;;
9461;SDS011;4769;42.660;23.262;2023-02-11T10:31:12;24.80;;;17.03;;
9461;SDS011;4769;42.660;23.262;2023-02-11T10:33:42;20.77;;;12.50;;
9461;SDS011;4769;42.660;23.262;2023-02-11T10:36:15;20.03;;;12.33;;
9461;SDS011;4769;42.660;23.262;2023-02-11T10:38:43;15.63;;;10.77;;
9461;SDS011;4769;42.660;23.262;2023-02-11T10:41:10;19.57;;;12.20;;
9461;SDS011;4769;42.660;23.262;2023-02-11T10:43:42;17.90;;;11.90;;
9461;SDS011;4769;42.660;23.262;2023-02-11T10:46:11;21.17;;;12.67;;
9461;SDS011;4769;42.660;23.262;2023-02-11T10:48:42;17.00;;;11.50;;
9461;SDS011;4769;42.660;23.262;2023-02-11T10:51:21;17.83;;;11.20;;
9461;SDS011;4769;42.660;23.262;2023-02-11T10:53:49;20.00;;;12.17;;
9461;SDS011;4769;42.660;23.262;2023-02-11T10:56:39;20.23;;;13.03;;
9461;SDS011;4769;42.660;23.262;2023-02-11T10:59:13;15.80;;;10.90;;
9461;SDS011;4769;42.660;23.262;2023-02-11T11:01:44;20.43;;;12.63;;
9461;SDS011;4769;42.660;23.262;2023-02-11T11:04:31;17.10;;;12.10;;
9461;SDS011;4769;42.660;23.262;2023-02-11T11:07:12;17.83;;;11.87;;
9461;SDS011;4769;42.660;23.262;2023-02-11T11:09:52;19.27;;;12.10;;
9461;SDS011;4769;42.660;23.262;2023-02-11T11:12:24;15.77;;;11.33;;
9461;SDS011;4769;42.660;23.262;2023-02-11T11:14:54;17.00;;;12.47;;
9461;SDS011;4769;42.660;23.262;2023-02-11T11:17:23;18.17;;;12.67;;
9461;SDS011;4769;42.660;23.262;2023-02-11T11:19:53;46.33;;;27.73;;
9461;SDS011;4769;42.660;23.262;2023-02-11T11:22:23;19.30;;;12.03;;
9461;SDS011;4769;42.660;23.262;2023-02-11T11:24:49;15.47;;;11.53;;
9461;SDS011;4769;42.660;23.262;2023-02-11T11:27:19;19.20;;;11.63;;
9461;SDS011;4769;42.660;23.262;2023-02-11T11:29:49;17.03;;;11.37;;
9461;SDS011;4769;42.660;23.262;2023-02-11T11:32:19;19.30;;;12.87;;
9461;SDS011;4769;42.660;23.262;2023-02-11T11:34:49;20.67;;;13.03;;
9461;SDS011;4769;42.660;23.262;2023-02-11T11:37:23;17.73;;;12.13;;
9461;SDS011;4769;42.660;23.262;2023-02-11T11:39:54;16.73;;;12.20;;
9461;SDS011;4769;42.660;23.262;2023-02-11T11:42:25;20.23;;;12.77;;
9461;SDS011;4769;42.660;23.262;2023-02-11T11:44:57;15.97;;;12.07;;
9461;SDS011;4769;42.660;23.262;2023-02-11T11:47:28;16.27;;;11.10;;
9461;SDS011;4769;42.660;23.262;2023-02-11T11:50:08;22.00;;;13.67;;
9461;SDS011;4769;42.660;23.262;2023-02-11T11:52:47;17.50;;;11.50;;
9461;SDS011;4769;42.660;23.262;2023-02-11T11:55:20;21.10;;;14.07;;
9461;SDS011;4769;42.660;23.262;2023-02-11T11:57:50;22.37;;;14.77;;
9461;SDS011;4769;42.660;23.262;2023-02-11T12:00:18;24.70;;;15.30;;
9461;SDS011;4769;42.660;23.262;2023-02-11T12:03:02;25.17;;;16.20;;
9461;SDS011;4769;42.660;23.262;2023-02-11T12:05:57;23.50;;;15.07;;
9461;SDS011;4769;42.660;23.262;2023-02-11T12:08:41;26.80;;;13.83;;
9461;SDS011;4769;42.660;23.262;2023-02-11T12:11:17;15.57;;;10.17;;
9461;SDS011;4769;42.660;23.262;2023-02-11T12:14:03;21.13;;;12.30;;
9461;SDS011;4769;42.660;23.262;2023-02-11T12:16:42;22.70;;;14.20;;
9461;SDS011;4769;42.660;23.262;2023-02-11T12:19:21;25.67;;;15.80;;
9461;SDS011;4769;42.660;23.262;2023-02-11T12:22:07;19.53;;;13.03;;
9461;SDS011;4769;42.660;23.262;2023-02-11T12:24:50;16.63;;;11.67;;
9461;SDS011;4769;42.660;23.262;2023-02-11T12:27:30;19.10;;;12.93;;
9461;SDS011;4769;42.660;23.262;2023-02-11T12:30:13;23.13;;;13.53;;
9461;SDS011;4769;42.660;23.262;2023-02-11T12:32:52;14.10;;;10.17;;
9461;SDS011;4769;42.660;23.262;2023-02-11T12:35:30;23.10;;;14.43;;
9461;SDS011;4769;42.660;23.262;2023-02-11T12:41:03;40.53;;;24.60;;
9461;SDS011;4769;42.660;23.262;2023-02-11T12:43:41;33.83;;;22.70;;
9461;SDS011;4769;42.660;23.262;2023-02-11T12:49:14;25.30;;;14.73;;
9461;SDS011;4769;42.660;23.262;2023-02-11T12:52:00;18.37;;;12.47;;
9461;SDS011;4769;42.660;23.262;2023-02-11T12:54:38;27.03;;;16.50;;
9461;SDS011;4769;42.660;23.262;2023-02-11T12:57:12;24.40;;;15.70;;
9461;SDS011;4769;42.660;23.262;2023-02-11T12:59:46;21.53;;;14.00;;
9461;SDS011;4769;42.660;23.262;2023-02-11T13:02:23;20.67;;;13.20;;
9461;SDS011;4769;42.660;23.262;2023-02-11T13:04:59;18.40;;;12.53;;
9461;SDS011;4769;42.660;23.262;2023-02-11T13:07:32;20.00;;;12.13;;
9461;SDS011;4769;42.660;23.262;2023-02-11T13:10:04;23.17;;;14.17;;
9461;SDS011;4769;42.660;23.262;2023-02-11T13:12:44;26.07;;;16.60;;
9461;SDS011;4769;42.660;23.262;2023-02-11T13:15:31;16.63;;;12.40;;
9461;SDS011;4769;42.660;23.262;2023-02-11T13:17:59;19.43;;;12.00;;
9461;SDS011;4769;42.660;23.262;2023-02-11T13:20:39;27.70;;;16.50;;
9461;SDS011;4769;42.660;23.262;2023-02-11T13:23:12;21.30;;;13.40;;
9461;SDS011;4769;42.660;23.262;2023-02-11T13:25:47;25.00;;;16.03;;
9461;SDS011;4769;42.660;23.262;2023-02-11T13:28:26;28.07;;;15.37;;
9461;SDS011;4769;42.660;23.262;2023-02-11T13:31:04;21.37;;;14.00;;
9461;SDS011;4769;42.660;23.262;2023-02-11T13:33:34;30.43;;;20.10;;
9461;SDS011;4769;42.660;23.262;2023-02-11T13:36:16;26.50;;;16.17;;
9461;SDS011;4769;42.660;23.262;2023-02-11T13:38:51;32.77;;;20.07;;
9461;SDS011;4769;42.660;23.262;2023-02-11T13:41:29;32.13;;;19.30;;
9461;SDS011;4769;42.660;23.262;2023-02-11T13:44:03;20.50;;;12.80;;
9461;SDS011;4769;42.660;23.262;2023-02-11T13:46:50;30.47;;;18.07;;
9461;SDS011;4769;42.660;23.262;2023-02-11T13:49:23;33.67;;;19.73;;
9461;SDS011;4769;42.660;23.262;2023-02-11T13:51:53;25.87;;;16.13;;
9461;SDS011;4769;42.660;23.262;2023-02-11T13:54:25;23.47;;;16.77;;
9461;SDS011;4769;42.660;23.262;2023-02-11T13:57:18;36.00;;;21.30;;
9461;SDS011;4769;42.660;23.262;2023-02-11T13:59:52;32.90;;;19.97;;
9461;SDS011;4769;42.660;23.262;2023-02-11T14:02:22;28.13;;;18.23;;
9461;SDS011;4769;42.660;23.262;2023-02-11T14:05:18;20.87;;;14.40;;
9461;SDS011;4769;42.660;23.262;2023-02-11T14:08:21;25.40;;;16.23;;
9461;SDS011;4769;42.660;23.262;2023-02-11T14:14:16;18.80;;;12.10;;
9461;SDS011;4769;42.660;23.262;2023-02-11T14:19:46;16.40;;;11.90;;
9461;SDS011;4769;42.660;23.262;2023-02-11T14:22:15;18.23;;;13.37;;
9461;SDS011;4769;42.660;23.262;2023-02-11T14:24:46;19.53;;;12.57;;
9461;SDS011;4769;42.660;23.262;2023-02-11T14:27:17;21.03;;;12.70;;
9461;SDS011;4769;42.660;23.262;2023-02-11T14:29:52;20.43;;;14.63;;
9461;SDS011;4769;42.660;23.262;2023-02-11T14:32:35;19.77;;;13.87;;
9461;SDS011;4769;42.660;23.262;2023-02-11T14:35:14;20.40;;;13.27;;
9461;SDS011;4769;42.660;23.262;2023-02-11T14:37:50;25.20;;;15.90;;
9461;SDS011;4769;42.660;23.262;2023-02-11T14:40:27;18.27;;;13.20;;
9461;SDS011;4769;42.660;23.262;2023-02-11T14:42:59;21.13;;;13.67;;
9461;SDS011;4769;42.660;23.262;2023-02-11T14:45:36;23.07;;;14.63;;
9461;SDS011;4769;42.660;23.262;2023-02-11T14:48:05;24.77;;;16.50;;
9461;SDS011;4769;42.660;23.262;2023-02-11T14:50:42;21.07;;;15.30;;
9461;SDS011;4769;42.660;23.262;2023-02-11T14:53:11;21.20;;;15.53;;
9461;SDS011;4769;42.660;23.262;2023-02-11T14:55:41;21.17;;;16.00;;
9461;SDS011;4769;42.660;23.262;2023-02-11T14:58:12;22.80;;;14.13;;
9461;SDS011;4769;42.660;23.262;2023-02-11T15:00:52;45.43;;;27.87;;
9461;SDS011;4769;42.660;23.262;2023-02-11T15:03:24;22.90;;;14.87;;
9461;SDS011;4769;42.660;23.262;2023-02-11T15:05:58;19.97;;;13.63;;
9461;SDS011;4769;42.660;23.262;2023-02-11T15:08:27;18.53;;;13.97;;
9461;SDS011;4769;42.660;23.262;2023-02-11T15:10:55;24.50;;;17.53;;
9461;SDS011;4769;42.660;23.262;2023-02-11T15:13:24;31.80;;;20.03;;
9461;SDS011;4769;42.660;23.262;2023-02-11T15:15:57;35.70;;;22.73;;
9461;SDS011;4769;42.660;23.262;2023-02-11T15:18:33;49.93;;;31.30;;